• Join FlightAware (Why Join?)
  • Login
  • US Flag 
06:56AM EST


 

Airport Tracker/Info


-or-


 

Live Flight TrackerFlight Track Log ✈ SKW5535 ✈ 11-Aug-2013 ✈ KMSO - KDEN

Flight Track Log - Related Links

Times and Time Zones

All times are in EDT time to prevent confusion due to time zone crossing. See the SKW5535 flight status page for this flight to view local times or setup timezone preferences in your user account.

Time Position Orientation Groundspeed Altitude Reporting Facility
EDT Latitude Longitude Course Direction KTS MPH feet Rate Location/Type
03:45PM 46.8389 -114.0689 130° Southeast 246 283 6,500  Level Salt Lake Center
03:46PM 46.7833 -114.0406 161° South 228 262 8,500 1,500 Climbing Salt Lake Center
03:47PM 46.4912 -113.9657 126° Southeast  Level FlightAware Approximate
03:47PM 46.7314 -113.9531 131° Southeast 267 307 9,700  Level Salt Lake Center
03:48PM 46.4179 -113.8432 139° Southeast  Level FlightAware Approximate
03:48PM 46.6747 -113.8589 131° Southeast 310 357 11,400  Level Salt Lake Center
03:49PM 46.3480 -113.7188 131° Southeast  Level FlightAware Approximate
03:49PM 46.6131 -113.7561 131° Southeast 314 361 13,700  Level Salt Lake Center
03:50PM 46.2768 -113.5928 130° Southeast  Level FlightAware Approximate
03:50PM 46.5511 -113.6661 135° Southeast 316 364 15,700  Level Salt Lake Center
03:51PM 46.4672 -113.5942 149° Southeast 326 375 16,800 1,140 Climbing Salt Lake Center
03:52PM 46.3992 -113.4972 135° Southeast 343 395 18,100 1,260 Climbing Salt Lake Center
03:53PM 46.3383 -113.3894 129° Southeast 344 396 19,500 1,320 Climbing Salt Lake Center
03:54PM 46.2717 -113.2797 131° Southeast 347 399 20,900 1,200 Climbing Salt Lake Center
03:55PM 46.2111 -113.1783 131° Southeast 346 398 22,100 1,080 Climbing Salt Lake Center
03:56PM 46.1553 -113.0650 125° Southeast 347 399 23,200 960 Climbing Salt Lake Center
03:57PM 46.1089 -112.9367 118° Southeast 357 411 24,200 960 Climbing Salt Lake Center
03:58PM 46.0556 -112.7839 117° Southeast 358 412 25,300 720 Climbing Salt Lake Center
03:59PM 45.9997 -112.6597 123° Southeast 368 423 25,800 480 Climbing Salt Lake Center
04:00PM 45.9422 -112.5314 123° Southeast 380 437 26,400 540 Climbing Salt Lake Center
04:01PM 45.8853 -112.4003 122° Southeast 386 444 27,000 480 Climbing Salt Lake Center
04:02PM 45.8281 -112.2664 121° Southeast 393 452 27,500 480 Climbing Salt Lake Center
04:03PM 45.7689 -112.1294 122° Southeast 404 465 28,000 720 Climbing Salt Lake Center
04:04PM 45.7231 -111.9478 110° East 409 471 29,100 960 Climbing Salt Lake Center
04:05PM 45.6750 -111.8106 117° Southeast 390 449 30,000 480 Climbing Salt Lake Center
04:07PM 45.6053 -111.6958 131° Southeast 386 444 30,100 240 Climbing Salt Lake Center
04:08PM 45.5228 -111.5950 139° Southeast 393 452 30,500 480 Climbing Salt Lake Center
04:09PM 45.4356 -111.4997 143° Southeast 398 458 31,100 480 Climbing Salt Lake Center
04:10PM 45.3294 -111.3836 142° Southeast 403 464 31,500 300 Climbing Salt Lake Center
04:11PM 45.2411 -111.2856 142° Southeast 405 466 31,800 300 Climbing Salt Lake Center
04:12PM 45.1531 -111.1811 140° Southeast 411 473 32,200 420 Climbing Salt Lake Center
04:13PM 45.0644 -111.0631 137° Southeast 415 478 32,700 360 Climbing Salt Lake Center
04:14PM 44.9878 -110.9503 134° Southeast 415 478 33,000 120 Climbing Salt Lake Center
04:15PM 44.8964 -110.8167 134° Southeast 421 484 33,000  Level Salt Lake Center
04:16PM 44.8150 -110.7008 135° Southeast 429 494 33,000  Level Salt Lake Center
04:17PM 44.7192 -110.5633 134° Southeast 438 504 33,000  Level Salt Lake Center
04:18PM 44.6367 -110.4433 134° Southeast 443 510 33,000  Level Salt Lake Center
04:19PM 44.5383 -110.3044 135° Southeast 446 513 33,000  Level Salt Lake Center
04:20PM 44.4542 -110.1850 135° Southeast 449 517 33,000  Level Salt Lake Center
04:21PM 44.3694 -110.0664 135° Southeast 449 517 33,000  Level Salt Lake Center
04:22PM 44.2708 -109.9258 134° Southeast 452 520 33,000  Level Salt Lake Center
04:23PM 44.1853 -109.8083 135° Southeast 450 518 33,000  Level Salt Lake Center
04:24PM 44.0886 -109.6708 134° Southeast 446 513 33,000  Level Salt Lake Center
04:25PM 44.0017 -109.5528 136° Southeast 454 522 33,000  Level Salt Lake Center
04:26PM 43.9033 -109.4156 135° Southeast 450 518 33,000  Level Salt Lake Center
04:27PM 43.8167 -109.2997 136° Southeast 452 520 33,000  Level Salt Lake Center
04:28PM 43.7183 -109.1625 135° Southeast 450 518 33,000  Level Salt Lake Center
04:29PM 43.6286 -109.0419 136° Southeast 454 522 33,000  Level Salt Lake Center
04:30PM 43.5425 -108.9264 136° Southeast 451 519 33,000  Level Salt Lake Center
04:31PM 43.4425 -108.7906 135° Southeast 451 519 33,000  Level Salt Lake Center
04:32PM 43.3550 -108.6764 136° Southeast 452 520 33,000  Level Salt Lake Center
04:33PM 43.2542 -108.5400 135° Southeast 454 522 33,000  Level Salt Lake Center
04:34PM 43.1678 -108.4236 135° Southeast 455 524 33,000  Level Salt Lake Center
04:35PM 43.0661 -108.2900 136° Southeast 455 524 33,000  Level Salt Lake Center
04:37PM 42.9786 -108.1744 136° Southeast 456 525 33,000  Level Salt Lake Center
04:38PM 42.8767 -108.0397 136° Southeast 456 525 33,000  Level Salt Lake Center
04:39PM 42.7881 -107.9256 137° Southeast 457 526 33,000  Level Salt Lake Center
04:40PM 42.6853 -107.7928 136° Southeast 456 525 33,000  Level Salt Lake Center
04:41PM 42.5981 -107.6767 136° Southeast 457 526 33,000  Level Salt Lake Center
04:42PM 42.4953 -107.5444 136° Southeast 457 526 33,000  Level Salt Lake Center
04:43PM 42.4064 -107.4306 137° Southeast 457 526 33,000  Level Salt Lake Center
04:44PM 42.3183 -107.3181 137° Southeast 456 525 33,000  Level Salt Lake Center
04:45PM 42.2144 -107.1864 137° Southeast 457 526 33,000  Level Salt Lake Center
04:46PM 42.1253 -107.0733 137° Southeast 458 527 33,000  Level Salt Lake Center
04:47PM 42.0208 -106.9411 137° Southeast 460 529 33,000  Level Salt Lake Center
04:48PM 41.9539 -106.7994 122° Southeast 472 543 33,000  Level Salt Lake Center
04:49PM 41.9428 -106.6289 95° East 461 531 33,000  Level Salt Lake Center
04:50PM 41.9453 -106.4439 89° East 446 513 33,000  Level Salt Lake Center
04:51PM 41.9456 -106.2886 90° East 438 504 33,000  Level Salt Lake Center
04:52PM 41.9461 -106.1097 90° East 432 497 33,000  Level Salt Lake Center
04:53PM 41.9442 -105.9558 91° East 433 498 33,000  Level Salt Lake Center
04:54PM 41.9431 -105.7522 90° East 427 491 33,000  Level Denver Center
04:55PM 41.9378 -105.5981 93° East 432 497 33,000  Level Denver Center
04:56PM 41.9072 -105.4233 103° East 434 499 33,000  Level Denver Center
04:57PM 41.8811 -105.2703 103° East 436 502 33,000  Level Denver Center
04:58PM 41.8542 -105.0919 101° East 442 509 33,000  Level Denver Center
04:59PM 41.8531 -104.9325 90° East 448 516 33,000  Level Denver Center
05:00PM 41.7764 -104.7858 125° Southeast 442 509 33,000  Level Denver Center
05:01PM 41.7000 -104.6664 131° Southeast 439 505 33,000  Level Denver Center
05:03PM 41.6094 -104.5286 131° Southeast 443 510 33,000  Level Denver Center
05:04PM 41.5314 -104.4111 132° Southeast 442 509 33,000 -60 Level Denver Center
05:05PM 41.4417 -104.2731 131° Southeast 442 509 32,900 -540 Descending Denver Center
05:06PM 41.3633 -104.1558 132° Southeast 444 511 32,000 -960 Descending Denver Center
05:07PM 41.2719 -104.0206 132° Southeast 442 509 31,000 -540 Descending Denver Center
05:08PM 41.1953 -103.9061 132° Southeast 435 501 31,000 -300 Level Denver Center
05:09PM 41.1172 -103.7900 132° Southeast 439 505 30,400 -540 Descending Denver Center
05:10PM 41.0217 -103.6506 132° Southeast 456 525 30,000 -300 Descending Denver Center
05:11PM 40.9161 -103.5406 142° Southeast 464 534 29,800 -780 Descending Denver Center
05:12PM 40.8000 -103.5711 191° South 432 497 28,400 -1,260 Descending Denver Center
05:13PM 40.6908 -103.6256 201° Southwest 418 481 27,200 -1,200 Descending Denver Center
05:14PM 40.5889 -103.6875 205° Southwest 407 468 26,000 -1,260 Descending Denver Center
05:15PM 40.5114 -103.7939 226° Southwest 402 463 24,700 -1,380 Descending Denver Center
05:16PM 40.4222 -103.9133 226° Southwest 403 464 23,200 -1,500 Descending Denver Center
05:17PM 40.3514 -104.0092 226° Southwest 339 390 21,600 -1,560 Descending Denver Center
05:18PM 40.2814 -104.0869 220° Southwest 329 379 20,000 -1,620 Descending Denver Center
05:19PM 40.2108 -104.1625 219° Southwest 329 379 18,300 -1,560 Descending Denver Center
05:20PM 40.1381 -104.2425 220° Southwest 316 364 16,800 -1,440 Descending Denver Center
05:21PM 40.0739 -104.3156 221° Southwest 306 352 15,400 -1,200 Descending Denver Center
05:22PM 40.0014 -104.3900 218° Southwest 308 354 14,400 -1,020 Descending Denver Center
05:23PM 39.9372 -104.4594 220° Southwest 300 345 13,300 -1,200 Descending Denver Center
05:24PM 39.8636 -104.4989 202° Southwest 271 312 12,000 -1,140 Descending Denver Center
05:25PM 39.7911 -104.5008 181° South 261 300 11,000 -1,020 Descending Denver Center
05:26PM 39.7225 -104.5039 182° South 247 284 9,900 -1,140 Descending Denver Center
05:27PM 39.6628 -104.5478 210° Southwest 242 278 8,700 -960 Descending Denver Center
05:28PM 39.6989 -104.6064 309° West 228 262 7,900 -840 Descending Denver Center
05:29PM 39.7553 -104.6394 336° Northwest 205 236 7,000 -960 Descending Denver Center
05:30PM 39.8008 -104.6417 358° North 161 185 6,000 -780 Descending Denver Center
05:31PM 39.8431 -104.6411 North 156 180 5,400 -600 Descending Denver Center